Time;durP1;ratioP1;P1;durP2;ratioP2;P2;SDS_P1;SDS_P2;PMS_P1;PMS_P2;Temp;Humidity;BMP_temperature;BMP_pressure;BME280_temperature;BME280_humidity;BME280_pressure;Samples;Min_cycle;Max_cycle;Signal;HPM_P1;HPM_P2
2023/11/01 00:01:01;;;;;;;5.97;2.13;;;10.00;99.90;;;;;;4966071;28;20058;-77
2023/11/01 00:03:47;;;;;;;4.68;2.03;;;10.00;99.90;;;;;;4957518;28;20629;-77
2023/11/01 00:06:35;;;;;;;5.47;1.90;;;10.00;99.90;;;;;;4972901;28;20046;-77
2023/11/01 00:09:21;;;;;;;7.75;2.30;;;10.00;99.90;;;;;;4959513;28;20134;-77
2023/11/01 00:12:07;;;;;;;4.07;2.08;;;10.00;99.90;;;;;;4968325;28;20039;-76
2023/11/01 00:14:53;;;;;;;5.90;2.22;;;10.10;99.90;;;;;;4945706;28;20495;-77
2023/11/01 00:17:39;;;;;;;3.35;2.15;;;10.00;99.90;;;;;;4950726;28;20043;-77
2023/11/01 00:20:25;;;;;;;8.85;2.58;;;10.00;99.90;;;;;;4950066;28;20372;-77
2023/11/01 00:23:12;;;;;;;5.70;2.50;;;10.00;99.90;;;;;;4964580;28;20035;-77
2023/11/01 00:25:58;;;;;;;4.95;2.40;;;10.00;99.90;;;;;;4955828;28;20054;-77
2023/11/01 00:28:46;;;;;;;10.95;2.92;;;10.00;99.90;;;;;;4957368;28;20034;-77
2023/11/01 00:31:31;;;;;;;8.13;2.58;;;10.00;99.90;;;;;;4957189;28;20042;-77
2023/11/01 00:34:18;;;;;;;4.90;2.28;;;10.00;99.90;;;;;;4957574;28;20050;-76
2023/11/01 00:37:05;;;;;;;5.30;2.50;;;10.00;99.90;;;;;;4945299;28;20063;-77
2023/11/01 00:39:51;;;;;;;5.85;2.90;;;10.00;99.90;;;;;;4946726;28;20039;-77
2023/11/01 00:42:37;;;;;;;7.47;2.35;;;10.00;99.90;;;;;;4958440;28;20424;-76
2023/11/01 00:45:23;;;;;;;6.88;2.58;;;10.00;99.90;;;;;;4960430;28;20046;-76
2023/11/01 00:48:09;;;;;;;7.03;2.60;;;10.00;99.90;;;;;;4966057;28;20366;-76
2023/11/01 00:50:55;;;;;;;3.67;2.45;;;10.00;99.90;;;;;;4975812;28;20118;-76
2023/11/01 00:53:41;;;;;;;5.15;2.40;;;10.00;99.90;;;;;;4949000;28;20066;-76
2023/11/01 00:56:28;;;;;;;6.30;2.30;;;10.00;99.90;;;;;;4955912;29;20102;-76
2023/11/01 00:59:14;;;;;;;7.15;3.20;;;10.00;99.90;;;;;;4957871;28;20050;-77
2023/11/01 01:02:00;;;;;;;5.22;3.08;;;10.00;99.90;;;;;;4971622;28;20038;-76
2023/11/01 01:04:47;;;;;;;7.03;2.72;;;10.00;99.90;;;;;;4983070;28;20108;-77
2023/11/01 01:07:33;;;;;;;9.18;3.28;;;10.00;99.90;;;;;;4972278;28;20070;-77
2023/11/01 01:10:19;;;;;;;8.68;3.70;;;10.00;99.90;;;;;;4981680;28;20046;-77
2023/11/01 01:13:07;;;;;;;4.32;3.10;;;10.00;99.90;;;;;;4953327;28;20047;-77
2023/11/01 01:15:52;;;;;;;5.80;2.80;;;10.00;99.90;;;;;;4960544;28;20051;-77
2023/11/01 01:18:42;;;;;;;4.45;2.70;;;10.00;99.90;;;;;;4955057;28;20463;-77
2023/11/01 01:21:29;;;;;;;6.97;3.13;;;9.90;99.90;;;;;;4970414;28;20047;-77
2023/11/01 01:24:16;;;;;;;5.82;3.80;;;9.90;99.90;;;;;;4942367;28;20372;-77
2023/11/01 01:27:02;;;;;;;4.78;3.00;;;10.00;99.90;;;;;;4958113;28;20101;-77
2023/11/01 01:29:48;;;;;;;5.85;3.30;;;10.00;99.90;;;;;;4949633;28;20098;-77
2023/11/01 01:32:34;;;;;;;7.60;3.78;;;10.00;99.90;;;;;;4964381;28;20051;-77
2023/11/01 01:35:20;;;;;;;8.02;3.78;;;10.00;99.90;;;;;;4961691;28;20060;-77
2023/11/01 01:38:06;;;;;;;4.93;3.17;;;10.00;99.90;;;;;;4961579;28;20038;-78
2023/11/01 01:40:52;;;;;;;7.88;3.25;;;10.00;99.90;;;;;;4943269;28;20051;-77
2023/11/01 01:43:39;;;;;;;6.15;3.65;;;10.00;99.90;;;;;;4957473;28;20035;-77
2023/11/01 01:46:27;;;;;;;5.28;3.15;;;10.00;99.90;;;;;;4956411;28;20043;-77
2023/11/01 01:49:13;;;;;;;4.30;3.28;;;10.00;99.90;;;;;;4970900;28;20038;-77
2023/11/01 01:51:59;;;;;;;8.77;3.45;;;10.00;99.90;;;;;;4950030;29;20110;-77
2023/11/01 01:54:45;;;;;;;5.38;3.50;;;10.10;99.90;;;;;;4974523;28;20049;-78
2023/11/01 01:57:32;;;;;;;9.07;3.72;;;10.10;99.90;;;;;;4960917;28;20066;-77
2023/11/01 02:00:18;;;;;;;6.72;4.05;;;10.00;99.90;;;;;;4957270;28;20217;-77
2023/11/01 02:03:05;;;;;;;5.60;3.65;;;10.10;99.90;;;;;;4974828;28;20038;-77
2023/11/01 02:05:52;;;;;;;6.03;3.60;;;10.10;99.90;;;;;;4947967;28;20046;-77
2023/11/01 02:08:38;;;;;;;4.70;3.50;;;10.10;99.90;;;;;;4970118;28;20157;-77
2023/11/01 02:11:24;;;;;;;7.03;3.60;;;10.10;99.90;;;;;;4942407;29;20102;-77
2023/11/01 02:14:10;;;;;;;8.30;3.72;;;10.10;99.90;;;;;;4943040;29;20484;-77
2023/11/01 02:16:56;;;;;;;9.40;3.85;;;10.10;99.90;;;;;;4971003;28;20043;-75
2023/11/01 02:19:42;;;;;;;4.97;3.83;;;10.20;99.90;;;;;;4965050;28;20070;-75
2023/11/01 02:22:29;;;;;;;5.47;4.10;;;10.20;99.90;;;;;;4951464;28;20043;-75
2023/11/01 02:25:15;;;;;;;6.33;4.00;;;10.10;99.90;;;;;;4973805;28;20453;-76
2023/11/01 02:28:03;;;;;;;7.18;3.92;;;10.10;99.90;;;;;;4956334;28;20043;-75
2023/11/01 02:30:49;;;;;;;11.33;4.77;;;10.10;99.90;;;;;;4963835;28;20082;-76
2023/11/01 02:33:35;;;;;;;8.05;3.97;;;10.10;99.90;;;;;;4951443;28;20038;-75
2023/11/01 02:36:20;;;;;;;6.75;4.22;;;10.10;99.90;;;;;;4972337;28;20501;-75
2023/11/01 02:39:06;;;;;;;8.13;4.45;;;10.20;99.90;;;;;;4968354;28;20054;-75
2023/11/01 02:41:52;;;;;;;6.80;3.75;;;10.10;99.90;;;;;;4947172;28;20464;-76
2023/11/01 02:44:38;;;;;;;5.05;2.80;;;10.10;99.90;;;;;;4952059;28;20089;-75
2023/11/01 02:47:24;;;;;;;8.00;3.70;;;10.20;99.90;;;;;;4952248;28;20043;-75
2023/11/01 02:50:12;;;;;;;5.90;3.80;;;10.20;99.90;;;;;;4944647;29;20694;-75
2023/11/01 02:52:58;;;;;;;8.43;3.25;;;10.20;99.90;;;;;;4949145;28;20661;-75
2023/11/01 02:55:44;;;;;;;5.65;3.35;;;10.30;99.90;;;;;;4953710;28;20042;-75
2023/11/01 02:58:30;;;;;;;5.30;2.88;;;10.30;99.90;;;;;;4965786;28;20071;-75
2023/11/01 03:01:17;;;;;;;4.57;2.97;;;10.30;99.90;;;;;;4936966;28;20035;-76
2023/11/01 03:04:03;;;;;;;8.38;3.08;;;10.30;99.90;;;;;;4967000;28;20109;-76
2023/11/01 03:06:49;;;;;;;5.78;2.90;;;10.30;99.90;;;;;;4948381;28;20039;-76
2023/11/01 03:09:35;;;;;;;4.60;2.50;;;10.30;99.90;;;;;;4943324;28;20452;-75
2023/11/01 03:12:21;;;;;;;5.75;2.30;;;10.30;99.90;;;;;;4956451;28;20030;-75
2023/11/01 03:15:08;;;;;;;6.40;2.60;;;10.30;99.90;;;;;;4959433;28;20527;-76
2023/11/01 03:17:54;;;;;;;5.00;2.80;;;10.30;99.90;;;;;;4972789;28;20470;-75
2023/11/01 03:20:39;;;;;;;6.05;2.75;;;10.30;99.90;;;;;;4964610;28;20807;-76
2023/11/01 03:23:25;;;;;;;4.47;2.60;;;10.30;99.90;;;;;;4962481;28;20039;-76
2023/11/01 03:26:11;;;;;;;5.25;2.78;;;10.30;99.90;;;;;;4954688;28;20078;-76
2023/11/01 03:28:57;;;;;;;5.07;3.08;;;10.30;99.90;;;;;;4955262;28;20050;-76
2023/11/01 03:31:43;;;;;;;4.60;2.70;;;10.30;99.90;;;;;;4958717;28;20592;-76
2023/11/01 03:34:29;;;;;;;6.32;3.20;;;10.40;99.90;;;;;;4955101;28;20038;-75
2023/11/01 03:37:15;;;;;;;10.32;5.97;;;10.40;99.90;;;;;;4967660;28;20035;-76
2023/11/01 03:40:02;;;;;;;8.25;5.00;;;10.40;99.90;;;;;;4964751;28;20035;-76
2023/11/01 03:42:48;;;;;;;6.30;3.55;;;10.40;99.90;;;;;;4945901;28;20345;-76
2023/11/01 03:45:34;;;;;;;8.50;3.03;;;10.40;99.90;;;;;;4949709;28;20039;-76
2023/11/01 03:48:20;;;;;;;5.03;3.38;;;10.30;99.90;;;;;;4971011;28;20047;-76
2023/11/01 03:51:06;;;;;;;5.10;3.53;;;10.30;99.90;;;;;;4959060;28;20047;-76
2023/11/01 03:53:52;;;;;;;4.50;2.88;;;10.30;99.90;;;;;;4959541;28;20048;-76
2023/11/01 03:56:42;;;;;;;4.95;3.00;;;10.30;99.90;;;;;;4945594;29;20122;-76
2023/11/01 03:59:28;;;;;;;5.43;3.20;;;10.30;99.90;;;;;;4954503;28;20527;-75
2023/11/01 04:02:14;;;;;;;4.90;3.20;;;10.30;99.90;;;;;;4955945;28;20043;-75
2023/11/01 04:05:00;;;;;;;7.70;3.42;;;10.30;99.90;;;;;;4970488;28;20692;-76
2023/11/01 04:07:46;;;;;;;6.10;3.45;;;10.30;99.90;;;;;;4959704;28;20078;-75
2023/11/01 04:10:32;;;;;;;5.00;3.47;;;10.30;99.90;;;;;;4971331;28;20113;-75
2023/11/01 04:13:18;;;;;;;7.30;3.55;;;10.20;99.90;;;;;;4955831;28;20054;-75
2023/11/01 04:16:05;;;;;;;5.90;3.47;;;10.20;99.90;;;;;;4969530;28;20030;-76
2023/11/01 04:18:51;;;;;;;5.78;3.30;;;10.10;99.90;;;;;;4960158;28;20062;-76
2023/11/01 04:21:37;;;;;;;6.05;3.00;;;10.10;99.90;;;;;;4972339;28;20036;-75
2023/11/01 04:24:24;;;;;;;5.15;3.58;;;10.10;99.90;;;;;;4965509;28;20053;-75
2023/11/01 04:27:09;;;;;;;5.05;2.90;;;10.10;99.90;;;;;;4951903;28;20046;-75
2023/11/01 04:29:55;;;;;;;6.68;3.03;;;10.10;99.90;;;;;;4963123;28;20038;-75
2023/11/01 04:32:43;;;;;;;5.72;3.17;;;10.00;99.90;;;;;;4963128;28;20069;-75
2023/11/01 04:35:29;;;;;;;7.07;3.30;;;10.10;99.90;;;;;;4975712;28;20129;-75
2023/11/01 04:38:15;;;;;;;4.93;3.10;;;10.00;99.90;;;;;;4964863;28;20106;-75
2023/11/01 04:41:01;;;;;;;6.75;3.97;;;10.00;99.90;;;;;;4982394;28;20480;-75
2023/11/01 04:43:48;;;;;;;7.05;3.60;;;10.10;99.90;;;;;;4971455;28;20039;-76
2023/11/01 04:46:35;;;;;;;5.80;3.30;;;10.10;99.90;;;;;;4969232;28;20094;-75
2023/11/01 04:49:21;;;;;;;5.03;3.57;;;10.10;99.90;;;;;;4966998;28;20039;-75
2023/11/01 04:52:07;;;;;;;6.25;3.53;;;10.10;99.90;;;;;;4954597;29;20369;-75
2023/11/01 04:54:55;;;;;;;6.75;3.80;;;10.10;99.90;;;;;;4957656;29;20120;-75
2023/11/01 04:57:43;;;;;;;7.95;3.97;;;10.10;99.90;;;;;;4963663;28;20043;-75
2023/11/01 05:00:29;;;;;;;6.35;3.80;;;10.00;99.90;;;;;;4963536;28;20375;-75
2023/11/01 05:03:16;;;;;;;7.72;4.28;;;10.00;99.90;;;;;;4977096;28;20035;-75
2023/11/01 05:06:04;;;;;;;6.15;4.50;;;10.10;99.90;;;;;;4962684;28;20375;-76
2023/11/01 05:08:50;;;;;;;6.43;4.05;;;10.00;99.90;;;;;;4974095;28;20045;-76
2023/11/01 05:11:36;;;;;;;6.60;3.83;;;10.00;99.90;;;;;;4947699;28;20117;-76
2023/11/01 05:14:23;;;;;;;6.68;4.28;;;10.00;99.90;;;;;;4963653;28;20463;-75
2023/11/01 05:17:09;;;;;;;7.78;4.00;;;10.00;99.90;;;;;;4943867;29;20555;-76
2023/11/01 05:19:55;;;;;;;4.65;3.75;;;10.00;99.90;;;;;;4958030;28;20042;-76
2023/11/01 05:22:41;;;;;;;8.20;4.15;;;10.00;99.90;;;;;;4962991;28;20041;-75
2023/11/01 05:25:30;;;;;;;6.32;4.30;;;9.90;99.90;;;;;;4967018;28;20958;-75
2023/11/01 05:28:16;;;;;;;7.03;4.72;;;9.90;99.90;;;;;;4968984;28;20069;-75
2023/11/01 05:31:02;;;;;;;6.25;3.80;;;9.90;99.90;;;;;;4945935;28;20464;-76
2023/11/01 05:33:50;;;;;;;7.85;4.32;;;9.90;99.90;;;;;;4976487;28;20768;-76
2023/11/01 05:36:36;;;;;;;6.97;3.90;;;9.90;99.90;;;;;;4968134;28;20071;-76
2023/11/01 05:39:22;;;;;;;7.95;3.97;;;9.90;99.90;;;;;;4950274;28;20333;-76
2023/11/01 05:42:08;;;;;;;6.88;3.78;;;10.00;99.90;;;;;;4976663;28;20042;-76
2023/11/01 05:44:54;;;;;;;7.38;4.50;;;10.00;99.90;;;;;;4963254;28;20039;-75
2023/11/01 05:47:40;;;;;;;6.38;3.97;;;10.00;99.90;;;;;;4962407;28;20054;-76
2023/11/01 05:50:27;;;;;;;8.27;4.32;;;10.00;99.90;;;;;;4961433;28;20038;-75
2023/11/01 05:53:13;;;;;;;7.60;4.25;;;10.10;99.90;;;;;;4975374;28;20070;-75
2023/11/01 05:55:59;;;;;;;6.78;4.07;;;10.00;99.90;;;;;;4959259;28;20122;-76
2023/11/01 05:58:45;;;;;;;8.07;4.88;;;10.00;99.90;;;;;;4958271;28;20066;-76
2023/11/01 06:01:31;;;;;;;6.20;4.43;;;10.10;99.90;;;;;;4951546;28;20141;-75
2023/11/01 06:04:17;;;;;;;7.32;3.90;;;10.10;99.90;;;;;;4975541;28;20097;-75
2023/11/01 06:07:04;;;;;;;6.55;4.57;;;10.10;99.90;;;;;;4972455;28;20059;-75
2023/11/01 06:09:51;;;;;;;6.60;4.28;;;10.10;99.90;;;;;;4975782;28;20083;-76
2023/11/01 06:12:37;;;;;;;6.72;4.13;;;10.10;99.90;;;;;;4975566;28;20039;-78
2023/11/01 06:15:24;;;;;;;8.32;4.28;;;10.10;99.90;;;;;;4963278;28;20392;-77
2023/11/01 06:18:09;;;;;;;7.32;4.45;;;10.10;99.90;;;;;;4963958;28;20409;-78
2023/11/01 06:20:56;;;;;;;6.85;4.05;;;10.10;99.90;;;;;;4974774;28;20034;-76
2023/11/01 06:23:44;;;;;;;9.15;3.80;;;10.10;99.90;;;;;;4960411;28;20039;-75
2023/11/01 06:26:31;;;;;;;6.30;3.92;;;10.10;99.90;;;;;;4951789;29;20110;-76
2023/11/01 06:29:17;;;;;;;8.95;4.25;;;10.10;99.90;;;;;;4943312;28;20051;-76
2023/11/01 06:32:03;;;;;;;7.15;4.18;;;10.10;99.90;;;;;;4957437;28;20042;-76
2023/11/01 06:34:49;;;;;;;5.78;3.85;;;10.10;99.90;;;;;;4962759;28;20055;-76
2023/11/01 06:37:35;;;;;;;8.00;3.70;;;10.10;99.90;;;;;;4943479;28;20097;-75
2023/11/01 06:40:22;;;;;;;9.55;4.10;;;10.10;99.90;;;;;;4971867;28;20042;-75
2023/11/01 06:43:08;;;;;;;7.03;3.97;;;10.10;99.90;;;;;;4972960;28;20367;-75
2023/11/01 06:45:55;;;;;;;8.65;3.55;;;10.20;99.90;;;;;;4972815;28;20459;-75
2023/11/01 06:48:41;;;;;;;11.00;4.05;;;10.20;99.90;;;;;;4961337;28;20344;-75
2023/11/01 06:51:27;;;;;;;9.32;3.70;;;10.20;99.90;;;;;;4961300;28;20101;-76
2023/11/01 06:54:13;;;;;;;8.15;3.95;;;10.20;99.90;;;;;;4966698;28;20038;-75
2023/11/01 06:57:00;;;;;;;10.13;3.60;;;10.20;99.90;;;;;;4973041;28;20359;-75
2023/11/01 06:59:46;;;;;;;8.05;3.55;;;10.30;99.90;;;;;;4966482;28;20035;-75
2023/11/01 07:02:34;;;;;;;7.25;3.20;;;10.30;99.90;;;;;;4973915;28;20101;-75
2023/11/01 07:05:21;;;;;;;5.35;3.60;;;10.30;99.90;;;;;;4973689;28;20038;-76
2023/11/01 07:08:10;;;;;;;7.32;4.47;;;10.30;99.90;;;;;;4948765;28;20054;-77
2023/11/01 07:10:56;;;;;;;7.90;3.42;;;10.30;99.90;;;;;;4972966;28;20125;-76
2023/11/01 07:13:42;;;;;;;7.22;3.75;;;10.30;99.90;;;;;;4957183;28;20053;-77
2023/11/01 07:16:31;;;;;;;6.05;2.92;;;10.40;99.90;;;;;;4967126;28;20043;-77
2023/11/01 07:19:17;;;;;;;6.53;2.97;;;10.40;99.90;;;;;;4963880;28;20075;-77
2023/11/01 07:22:04;;;;;;;7.25;3.63;;;10.40;99.90;;;;;;4955242;29;20046;-77
2023/11/01 07:24:50;;;;;;;6.47;3.00;;;10.40;99.90;;;;;;4962977;28;20039;-77
2023/11/01 07:27:36;;;;;;;9.70;3.58;;;10.40;99.90;;;;;;4948612;28;20046;-77
2023/11/01 07:30:22;;;;;;;9.40;3.78;;;10.50;99.90;;;;;;4959983;28;20046;-77
2023/11/01 07:33:08;;;;;;;7.35;3.30;;;10.50;99.90;;;;;;4959889;28;20129;-77
2023/11/01 07:35:55;;;;;;;4.75;2.53;;;10.40;99.90;;;;;;4969449;28;20492;-77
2023/11/01 07:38:41;;;;;;;6.40;2.75;;;10.50;99.90;;;;;;4960040;28;20058;-77
2023/11/01 07:41:27;;;;;;;9.20;2.90;;;10.50;99.90;;;;;;4950971;28;20039;-77
2023/11/01 07:44:13;;;;;;;6.57;2.80;;;10.50;99.90;;;;;;4951896;28;20054;-77
2023/11/01 07:47:00;;;;;;;6.15;2.25;;;10.60;99.90;;;;;;4959317;28;20470;-77
2023/11/01 07:49:46;;;;;;;5.85;2.80;;;10.60;99.90;;;;;;4954751;29;20098;-77
2023/11/01 07:52:32;;;;;;;9.10;2.42;;;10.60;99.90;;;;;;4948208;28;20449;-77
2023/11/01 07:55:18;;;;;;;7.45;2.97;;;10.70;99.90;;;;;;4959864;28;20054;-77
2023/11/01 07:58:04;;;;;;;6.80;2.60;;;10.70;99.90;;;;;;4959864;28;20825;-77
2023/11/01 08:00:50;;;;;;;7.68;3.75;;;10.70;99.90;;;;;;4970619;28;20114;-76
2023/11/01 08:03:37;;;;;;;6.32;3.08;;;10.70;99.90;;;;;;4957277;28;20034;-77
2023/11/01 08:06:23;;;;;;;4.50;2.25;;;10.70;99.90;;;;;;4972610;28;20062;-77
2023/11/01 08:09:11;;;;;;;8.15;2.38;;;10.80;99.90;;;;;;4946747;28;20054;-77
2023/11/01 08:11:57;;;;;;;5.28;2.42;;;10.80;99.90;;;;;;4965084;28;20050;-77
2023/11/01 08:14:43;;;;;;;7.70;2.58;;;10.90;99.90;;;;;;4959969;28;20623;-77
2023/11/01 08:17:30;;;;;;;5.45;2.42;;;10.90;99.90;;;;;;4953679;28;20485;-76
2023/11/01 08:20:16;;;;;;;8.23;2.40;;;10.90;99.90;;;;;;4952374;29;20054;-76
2023/11/01 08:23:02;;;;;;;6.70;2.60;;;10.90;99.90;;;;;;4972058;28;20046;-76
2023/11/01 08:25:50;;;;;;;7.00;2.50;;;10.90;99.90;;;;;;4939685;28;20510;-75
2023/11/01 08:28:36;;;;;;;7.47;2.63;;;10.90;99.90;;;;;;4958988;28;20495;-76
2023/11/01 08:31:21;;;;;;;8.52;2.67;;;11.00;99.90;;;;;;4960150;28;20061;-77
2023/11/01 08:34:08;;;;;;;8.23;2.72;;;11.00;99.90;;;;;;4940903;28;20081;-75
2023/11/01 08:36:56;;;;;;;7.07;2.55;;;11.00;99.90;;;;;;4944653;28;20045;-76
2023/11/01 08:39:42;;;;;;;7.88;2.38;;;11.10;99.90;;;;;;4961058;28;20070;-76
2023/11/01 08:42:31;;;;;;;15.57;6.22;;;11.10;99.90;;;;;;4961476;28;20679;-77
2023/11/01 08:45:17;;;;;;;7.10;3.35;;;11.10;99.90;;;;;;4946965;28;20122;-77
2023/11/01 08:48:05;;;;;;;7.88;3.63;;;11.20;99.90;;;;;;4960309;28;20110;-77
2023/11/01 08:50:51;;;;;;;9.15;2.55;;;11.20;99.90;;;;;;4973904;28;20102;-77
2023/11/01 08:53:37;;;;;;;6.45;2.55;;;11.20;99.90;;;;;;4960531;28;20049;-77
2023/11/01 08:56:23;;;;;;;5.68;2.10;;;11.30;99.90;;;;;;4961157;28;20750;-77
2023/11/01 08:59:09;;;;;;;10.98;2.58;;;11.30;99.90;;;;;;4944978;28;20066;-77
2023/11/01 09:01:55;;;;;;;8.55;2.47;;;11.30;99.90;;;;;;4945364;29;20039;-77
2023/11/01 09:04:41;;;;;;;6.70;1.92;;;11.30;99.90;;;;;;4947595;28;20503;-77
2023/11/01 09:07:29;;;;;;;6.40;2.10;;;11.40;99.90;;;;;;4964338;28;20123;-77
2023/11/01 09:10:15;;;;;;;7.83;2.20;;;11.40;99.90;;;;;;4950166;28;20498;-77
2023/11/01 09:13:01;;;;;;;5.32;2.40;;;11.40;99.90;;;;;;4945784;29;20054;-77
2023/11/01 09:15:47;;;;;;;6.90;2.53;;;11.40;99.90;;;;;;4945142;28;20488;-77
2023/11/01 09:18:33;;;;;;;5.22;2.33;;;11.40;99.90;;;;;;4977549;28;20508;-77
2023/11/01 09:21:19;;;;;;;3.83;1.85;;;11.50;99.90;;;;;;4962771;28;20116;-77
2023/11/01 09:24:05;;;;;;;6.20;2.30;;;11.40;99.90;;;;;;4963997;28;20045;-77
2023/11/01 09:26:51;;;;;;;4.40;2.00;;;11.40;99.90;;;;;;4961422;28;20049;-77
2023/11/01 09:29:37;;;;;;;6.43;2.22;;;11.50;99.90;;;;;;4963053;28;20139;-77
2023/11/01 09:32:23;;;;;;;5.30;1.65;;;11.50;99.90;;;;;;4963661;28;20038;-77
2023/11/01 09:35:11;;;;;;;8.23;1.52;;;11.40;99.90;;;;;;4977817;28;20129;-77
2023/11/01 09:37:57;;;;;;;7.05;1.50;;;11.50;99.90;;;;;;4976584;28;20045;-77
2023/11/01 09:40:44;;;;;;;5.68;2.05;;;11.40;99.90;;;;;;4956861;28;20047;-77
2023/11/01 09:43:30;;;;;;;6.15;1.42;;;11.50;99.90;;;;;;4976550;28;20035;-77
2023/11/01 09:46:16;;;;;;;4.38;1.95;;;11.40;99.90;;;;;;4963307;28;20046;-77
2023/11/01 09:49:04;;;;;;;5.97;1.60;;;11.50;99.90;;;;;;4964226;28;20049;-77
2023/11/01 09:51:50;;;;;;;4.22;1.40;;;11.50;99.90;;;;;;4964105;28;20764;-77
2023/11/01 09:54:36;;;;;;;7.28;1.77;;;11.50;99.90;;;;;;4976730;28;20424;-77
2023/11/01 09:57:25;;;;;;;5.70;2.00;;;11.50;99.90;;;;;;4961513;28;20054;-76
2023/11/01 10:00:13;;;;;;;4.10;1.90;;;11.60;99.90;;;;;;4950790;28;20035;-77
2023/11/01 10:02:59;;;;;;;7.97;1.98;;;11.60;99.90;;;;;;4961502;28;20061;-77
2023/11/01 10:05:46;;;;;;;7.50;2.10;;;11.60;99.90;;;;;;4961897;28;20079;-77
2023/11/01 10:08:32;;;;;;;3.42;1.60;;;11.60;99.90;;;;;;4962327;28;20126;-77
2023/11/01 10:11:20;;;;;;;3.97;1.83;;;11.60;99.90;;;;;;4948254;28;20109;-77
2023/11/01 10:14:06;;;;;;;3.10;1.58;;;11.70;99.90;;;;;;4956853;28;20043;-77
2023/11/01 10:16:51;;;;;;;4.78;2.08;;;11.60;99.90;;;;;;4948988;28;20058;-77
2023/11/01 10:19:40;;;;;;;5.40;1.80;;;11.70;99.90;;;;;;4976783;28;20147;-75
2023/11/01 10:22:29;;;;;;;5.03;2.13;;;11.70;99.90;;;;;;4962418;28;20045;-76
2023/11/01 10:25:15;;;;;;;5.20;1.88;;;11.70;99.90;;;;;;4962198;28;20074;-76
2023/11/01 10:28:01;;;;;;;3.78;1.50;;;11.70;99.90;;;;;;4950251;28;20054;-76
2023/11/01 10:30:48;;;;;;;4.28;1.50;;;11.70;99.90;;;;;;4961253;28;20103;-76
2023/11/01 10:33:34;;;;;;;3.13;1.30;;;11.70;99.90;;;;;;4976073;28;20098;-76
2023/11/01 10:36:22;;;;;;;3.95;1.58;;;11.70;99.90;;;;;;4963038;28;20043;-77
2023/11/01 10:39:08;;;;;;;3.95;1.58;;;11.70;99.90;;;;;;4962832;28;20057;-77
2023/11/01 10:41:54;;;;;;;5.18;1.70;;;11.70;99.90;;;;;;4962315;28;20039;-77
2023/11/01 10:44:40;;;;;;;5.03;1.58;;;11.80;99.90;;;;;;4966218;28;20371;-76
2023/11/01 10:47:30;;;;;;;6.80;1.67;;;11.80;99.90;;;;;;4958654;28;20512;-76
2023/11/01 10:50:16;;;;;;;5.00;1.48;;;11.90;99.90;;;;;;4960557;28;20416;-76
2023/11/01 10:53:02;;;;;;;3.85;1.73;;;11.90;99.90;;;;;;4961766;28;20066;-76
2023/11/01 10:55:50;;;;;;;3.97;1.42;;;11.90;99.90;;;;;;4961443;28;20081;-73
2023/11/01 10:58:39;;;;;;;4.10;1.40;;;12.00;99.90;;;;;;4959749;28;20363;-74
2023/11/01 11:01:42;;;;;;;10.25;2.17;;;12.10;99.90;;;;;;4938895;28;20444;-74
2023/11/01 11:04:32;;;;;;;3.58;1.38;;;12.10;99.90;;;;;;4951507;28;20041;-74
2023/11/01 11:07:37;;;;;;;3.67;1.58;;;12.20;99.90;;;;;;4947761;28;20145;-74
2023/11/01 11:10:31;;;;;;;5.35;1.40;;;12.30;99.90;;;;;;4970065;28;20097;-74
2023/11/01 11:13:21;;;;;;;4.80;1.30;;;12.30;99.90;;;;;;4961156;28;20066;-74
2023/11/01 11:16:09;;;;;;;4.63;1.70;;;12.40;99.90;;;;;;4960564;28;20055;-74
2023/11/01 11:18:56;;;;;;;8.13;1.35;;;12.50;99.90;;;;;;4955640;28;20063;-74
2023/11/01 11:21:48;;;;;;;4.97;1.40;;;12.50;99.90;;;;;;4961001;28;20035;-74
2023/11/01 11:24:39;;;;;;;6.38;1.60;;;12.60;99.90;;;;;;4972349;28;20066;-74
2023/11/01 11:27:50;;;;;;;5.13;1.45;;;12.70;99.90;;;;;;4974098;28;20439;-74
2023/11/01 11:30:45;;;;;;;5.45;2.05;;;12.70;99.90;;;;;;4971025;28;20125;-74
2023/11/01 11:33:32;;;;;;;8.57;2.40;;;12.70;99.90;;;;;;4954224;29;20338;-74
2023/11/01 11:36:23;;;;;;;4.43;1.73;;;12.80;99.90;;;;;;4970269;28;20281;-74
2023/11/01 11:39:10;;;;;;;5.28;1.95;;;12.80;99.90;;;;;;4964245;28;20093;-74
2023/11/01 11:41:56;;;;;;;3.07;1.60;;;12.80;99.90;;;;;;4970653;28;20035;-74
2023/11/01 11:45:01;;;;;;;6.85;2.60;;;12.80;99.90;;;;;;4958170;28;20277;-74
2023/11/01 11:47:47;;;;;;;9.93;2.58;;;12.90;99.90;;;;;;4968409;28;20130;-74
2023/11/01 11:50:33;;;;;;;8.48;2.70;;;12.90;99.90;;;;;;4971966;28;20066;-74
2023/11/01 11:53:19;;;;;;;8.43;2.22;;;12.90;99.90;;;;;;4974044;28;20574;-74
2023/11/01 11:56:05;;;;;;;5.22;1.90;;;13.00;99.90;;;;;;4967530;28;20039;-74
2023/11/01 11:58:51;;;;;;;8.35;1.67;;;13.00;99.90;;;;;;4956370;28;20463;-74
2023/11/01 12:01:38;;;;;;;5.68;1.70;;;13.00;99.90;;;;;;4968532;28;20043;-74
2023/11/01 12:04:27;;;;;;;4.15;1.52;;;13.10;99.90;;;;;;4964971;28;20049;-74
2023/11/01 12:07:21;;;;;;;7.65;1.67;;;13.10;99.90;;;;;;4965093;28;20105;-74
2023/11/01 12:10:08;;;;;;;7.03;1.83;;;13.10;99.90;;;;;;4947211;28;20084;-74
2023/11/01 12:12:54;;;;;;;7.05;1.70;;;13.20;99.90;;;;;;4979617;28;20035;-74
2023/11/01 12:15:41;;;;;;;8.63;1.80;;;13.20;99.90;;;;;;4959959;28;20088;-74
2023/11/01 12:18:27;;;;;;;7.40;2.10;;;13.20;99.90;;;;;;4964476;28;20630;-74
2023/11/01 12:21:14;;;;;;;8.07;1.77;;;13.30;99.90;;;;;;4985636;28;20046;-74
2023/11/01 12:24:00;;;;;;;9.32;2.10;;;13.30;99.90;;;;;;4972920;28;20096;-74
2023/11/01 12:27:05;;;;;;;9.88;2.10;;;13.30;99.90;;;;;;4958840;28;20499;-74
2023/11/01 12:29:51;;;;;;;7.45;1.95;;;13.30;99.90;;;;;;4977578;28;20045;-74
2023/11/01 12:32:41;;;;;;;7.97;2.20;;;13.30;99.90;;;;;;4954000;28;20051;-74
2023/11/01 12:35:27;;;;;;;6.25;1.88;;;13.30;99.90;;;;;;4963321;28;20046;-74
2023/11/01 12:38:17;;;;;;;5.35;1.55;;;13.30;99.90;;;;;;4969886;28;20062;-76
2023/11/01 12:41:10;;;;;;;8.13;1.60;;;13.40;99.90;;;;;;4961839;28;20039;-76
2023/11/01 12:43:57;;;;;;;7.68;1.95;;;13.40;99.90;;;;;;4977201;28;20030;-76
2023/11/01 12:46:43;;;;;;;5.75;1.75;;;13.40;99.90;;;;;;4955074;28;20127;-76
2023/11/01 12:49:29;;;;;;;8.45;1.90;;;13.40;99.90;;;;;;4969811;28;20506;-76
2023/11/01 12:52:15;;;;;;;8.63;1.70;;;13.50;99.90;;;;;;4965022;28;20047;-76
2023/11/01 12:55:01;;;;;;;6.93;1.40;;;13.60;99.90;;;;;;4961502;28;20038;-76
2023/11/01 12:57:50;;;;;;;11.82;2.05;;;13.60;99.90;;;;;;4963772;28;20039;-76
2023/11/01 13:00:37;;;;;;;6.20;1.80;;;13.60;99.90;;;;;;4962977;28;20072;-76
2023/11/01 13:03:23;;;;;;;8.35;1.77;;;13.60;99.90;;;;;;4977903;28;20117;-76
2023/11/01 13:06:09;;;;;;;9.63;2.20;;;13.70;99.90;;;;;;4944670;28;20074;-76
2023/11/01 13:08:55;;;;;;;8.35;1.80;;;13.70;99.90;;;;;;4976662;28;20093;-76
2023/11/01 13:11:41;;;;;;;7.05;2.30;;;13.70;99.90;;;;;;4948852;29;20038;-76
2023/11/01 13:14:27;;;;;;;7.20;2.03;;;13.70;99.90;;;;;;4948242;28;20122;-76
2023/11/01 13:17:13;;;;;;;7.32;1.83;;;13.80;99.90;;;;;;4965102;28;20075;-76
2023/11/01 13:19:59;;;;;;;6.30;1.52;;;13.80;99.90;;;;;;4965151;28;20043;-76
2023/11/01 13:22:45;;;;;;;9.80;1.88;;;13.80;99.90;;;;;;4958707;28;20035;-76
2023/11/01 13:25:32;;;;;;;4.80;1.83;;;13.80;99.90;;;;;;4943430;28;20042;-76
2023/11/01 13:28:18;;;;;;;8.43;2.00;;;13.90;99.90;;;;;;4952731;29;20047;-76
2023/11/01 13:31:04;;;;;;;9.05;1.88;;;13.90;99.90;;;;;;4953335;28;20038;-76
2023/11/01 13:33:51;;;;;;;8.95;1.55;;;13.90;99.90;;;;;;4977392;28;20364;-76
2023/11/01 13:36:37;;;;;;;12.30;2.47;;;13.90;99.90;;;;;;4949542;28;20053;-76
2023/11/01 13:39:25;;;;;;;5.72;1.83;;;13.90;99.90;;;;;;4972502;28;20353;-76
2023/11/01 13:42:11;;;;;;;9.27;1.55;;;13.90;99.90;;;;;;4973348;28;20035;-77
2023/11/01 13:44:57;;;;;;;5.32;1.20;;;13.90;99.90;;;;;;4976565;28;20057;-76
2023/11/01 13:47:43;;;;;;;5.85;1.70;;;13.90;99.90;;;;;;4963063;28;20039;-76
2023/11/01 13:50:30;;;;;;;4.55;1.30;;;13.90;99.90;;;;;;4959361;28;20051;-76
2023/11/01 13:53:16;;;;;;;5.07;1.35;;;13.90;99.90;;;;;;4959049;28;20101;-76
2023/11/01 13:56:04;;;;;;;5.70;1.20;;;13.90;99.90;;;;;;4954817;28;20547;-76
2023/11/01 13:58:53;;;;;;;12.52;1.70;;;13.90;99.90;;;;;;4958367;28;20134;-76
2023/11/01 14:01:39;;;;;;;8.70;1.85;;;13.90;99.90;;;;;;4976011;28;20057;-76
2023/11/01 14:04:25;;;;;;;7.90;1.85;;;13.90;99.90;;;;;;4963410;28;20121;-76
2023/11/01 14:07:11;;;;;;;5.32;1.92;;;13.90;99.90;;;;;;4960118;28;20642;-76
2023/11/01 14:09:57;;;;;;;7.68;1.52;;;13.90;99.90;;;;;;4950264;28;20050;-76
2023/11/01 14:12:47;;;;;;;5.95;1.33;;;13.90;99.90;;;;;;4945353;28;20047;-76
2023/11/01 14:15:40;;;;;;;7.97;2.05;;;13.90;99.90;;;;;;4975121;28;20043;-76
2023/11/01 14:18:26;;;;;;;6.43;1.15;;;14.00;99.90;;;;;;4959365;28;20538;-76
2023/11/01 14:21:15;;;;;;;13.82;2.35;;;14.00;99.90;;;;;;4960398;28;20043;-76
2023/11/01 14:24:01;;;;;;;5.47;1.35;;;14.00;99.90;;;;;;4974562;28;20698;-76
2023/11/01 14:26:48;;;;;;;6.05;1.67;;;14.00;99.90;;;;;;4965666;28;20086;-76